Charter Quote
Worldwide +1-877-727-2538 Call
Select Language Lang
SAFETY RELIABILITY EXPERIENCE

Private Jet Charter Services - Capital Intl (ZBAA)

Paramount Business Jets offers private jet charter flights and luxury airliner charters to and from Capital Intl.

AIRPORT INFORMATION
ICAOZBAA
IATAPEK
LOCATIONBeijing, China
FACILITY TYPEAIRPORT
Runway Length (ft) Width (ft) Surface Type Elevation (ft)
18L/36R 12467 196 CONC 116.00000
18R/36L 10499 164 CONC 116.00000
01/19 12467 197 CONC 116.00000

At Paramount Business Jets you can hire chartered private jets to and from Capital Intl with as little as 4 hours of notice. All flights booked via Paramount Business Jets are operated by certified direct air carriers that meet and exceed the FAA part 135 and 121 protocol or a foreign equivalent safety authority. Furthermore, Paramount Business Jets subscribes to ARGUS for their third party safety checks of operators, aircraft, and crews prior each and every flight to and from Capital Intl and worldwide.

  • Quote a trip using Capital Intl or call us 24/7 - 365 days a year at +1-877-727-2538.
Questions? Call +1-877-727-2538

METAR Weather Data at Capital Intl, ZBAA, PEK

STATIONZBAA
OBSERVEDTue Jul 16, 03:30 UTC
NOWTue Jul 16, 04:01 UTC
AGE31 min ago
WINDSE at 4 mph
VISIBILITY13 miles
METARZBAA 160330Z 14002MPS 090V200 8000 NSC 30/21 Q1008 NOSIG

Call us on +1-877-727-2538 (24 Hours) to Hire a Private Jet or Get a Quick Quote.

Find Airports Near any Location

Processing
...